createdAt,value
2019-02-05T00:01:21.046Z,73.62
2019-02-05T00:03:50.615Z,73.68
2019-02-05T00:06:20.482Z,73.86
2019-02-05T00:08:50.051Z,74.11
2019-02-05T00:11:19.544Z,74.31
2019-02-05T00:13:48.938Z,73.61
2019-02-05T00:16:18.328Z,73.06
2019-02-05T00:18:47.824Z,73.11
2019-02-05T00:21:17.791Z,72.94
2019-02-05T00:23:47.193Z,73.03
2019-02-05T00:26:16.589Z,72.97
2019-02-05T00:28:46.110Z,73.15
2019-02-05T00:31:15.634Z,73.49
2019-02-05T00:33:45.005Z,73.54
2019-02-05T00:36:14.681Z,73.29
2019-02-05T00:38:44.164Z,73.30
2019-02-05T00:41:13.759Z,73.63
2019-02-05T00:43:43.154Z,73.46
2019-02-05T00:46:12.838Z,73.12
2019-02-05T00:48:42.219Z,72.75
2019-02-05T00:51:11.669Z,72.94
2019-02-05T00:53:41.368Z,73.09
2019-02-05T00:56:17.360Z,73.40
2019-02-05T00:58:41.980Z,73.37
2019-02-05T01:01:11.371Z,73.16
2019-02-05T01:03:40.850Z,73.01
2019-02-05T01:06:10.494Z,73.33
2019-02-05T01:08:40.132Z,73.35
2019-02-05T01:11:09.522Z,73.15
2019-02-05T01:13:39.145Z,73.10
2019-02-05T01:16:08.759Z,73.70
2019-02-05T01:18:38.660Z,73.92
2019-02-05T01:21:08.167Z,73.25
2019-02-05T01:23:37.655Z,73.43
2019-02-05T01:26:07.158Z,73.51
2019-02-05T01:28:36.721Z,73.63
2019-02-05T01:31:06.114Z,73.94
2019-02-05T01:33:35.675Z,73.94
2019-02-05T01:36:05.156Z,74.03
2019-02-05T01:38:34.548Z,74.17
2019-02-05T01:41:03.986Z,74.45
2019-02-05T01:43:33.482Z,74.79
2019-02-05T01:46:03.081Z,74.69
2019-02-05T01:48:32.470Z,74.80
2019-02-05T01:51:01.873Z,75.22
2019-02-05T01:53:31.364Z,75.81
2019-02-05T01:56:00.858Z,75.48
2019-02-05T01:58:30.289Z,75.26
2019-02-05T02:00:59.955Z,75.29
2019-02-05T02:03:29.783Z,75.22
2019-02-05T02:05:59.176Z,75.31
2019-02-05T02:08:29.046Z,75.12
2019-02-05T02:10:58.626Z,75.24
2019-02-05T02:13:28.104Z,75.20
2019-02-05T02:15:58.106Z,75.06
2019-02-05T02:18:27.581Z,74.83
2019-02-05T02:20:57.100Z,74.56
2019-02-05T02:23:26.592Z,74.68
2019-02-05T02:25:55.973Z,74.46
2019-02-05T02:28:25.474Z,74.88
2019-02-05T02:30:54.966Z,75.29
2019-02-05T02:33:24.507Z,75.05
2019-02-05T02:35:54.139Z,75.27
2019-02-05T02:38:23.635Z,75.79
2019-02-05T02:40:53.379Z,75.80
2019-02-05T02:43:22.771Z,76.00
2019-02-05T02:45:52.265Z,76.01
2019-02-05T02:48:21.699Z,76.30
2019-02-05T02:50:51.080Z,76.06
2019-02-05T02:53:20.794Z,76.26
2019-02-05T02:55:50.543Z,76.32
2019-02-05T02:58:20.150Z,76.50
2019-02-05T03:00:49.840Z,76.97
2019-02-05T03:03:19.714Z,77.05
2019-02-05T03:05:49.600Z,76.91
2019-02-05T03:08:19.338Z,76.81
2019-02-05T03:10:49.059Z,76.87
2019-02-05T03:13:18.918Z,76.78
2019-02-05T03:15:48.776Z,77.32
2019-02-05T03:18:18.483Z,77.92
2019-02-05T03:20:48.095Z,78.08
2019-02-05T03:23:17.769Z,78.06
2019-02-05T03:25:47.159Z,77.94
2019-02-05T03:28:16.908Z,77.80
2019-02-05T03:30:46.725Z,77.39
2019-02-05T03:33:16.315Z,76.62
2019-02-05T03:35:45.808Z,76.39
2019-02-05T03:38:15.598Z,77.04
2019-02-05T03:41:04.800Z,77.19
2019-02-05T03:43:35.431Z,77.19
2019-02-05T03:46:09.949Z,77.68
2019-02-05T03:48:40.647Z,78.31
2019-02-05T03:51:30.577Z,78.55
2019-02-05T03:54:30.238Z,78.91
2019-02-05T03:57:09.437Z,79.43
2019-02-05T04:00:06.591Z,79.66
2019-02-05T04:02:58.094Z,79.68
2019-02-05T04:06:14.388Z,79.97
2019-02-05T04:09:12.739Z,79.67
2019-02-05T04:12:13.507Z,79.77
2019-02-05T04:14:58.359Z,79.78
2019-02-05T04:18:00.494Z,80.02
2019-02-05T04:21:11.015Z,79.81
2019-02-05T04:24:00.081Z,79.96
2019-02-05T04:26:42.704Z,80.17
2019-02-05T04:29:55.045Z,80.85
2019-02-05T04:33:17.502Z,81.30
2019-02-05T04:36:42.813Z,81.78
2019-02-05T04:39:40.827Z,81.75
2019-02-05T04:42:37.551Z,81.99
2019-02-05T04:45:37.361Z,81.08
2019-02-05T04:48:56.447Z,81.09
2019-02-05T04:51:50.109Z,81.21
2019-02-05T04:55:14.658Z,81.71
2019-02-05T04:58:15.774Z,81.70
2019-02-05T05:01:18.802Z,81.27
2019-02-05T05:04:16.678Z,81.50
2019-02-05T05:07:22.474Z,81.85
2019-02-05T05:09:59.964Z,81.89
2019-02-05T05:12:30.582Z,82.45
2019-02-05T05:15:00.899Z,82.99
2019-02-05T05:17:30.519Z,82.96
2019-02-05T05:20:00.517Z,82.70
2019-02-05T05:22:30.768Z,82.44
2019-02-05T05:25:00.363Z,82.90
2019-02-05T05:27:30.785Z,83.21
2019-02-05T05:30:00.585Z,83.31
2019-02-05T05:32:30.206Z,83.11
2019-02-05T05:35:00.153Z,83.00
2019-02-05T05:37:29.750Z,83.41
2019-02-05T05:39:59.234Z,83.36
2019-02-05T05:42:28.897Z,83.39
2019-02-05T05:44:58.296Z,83.14
2019-02-05T05:47:27.776Z,82.69
2019-02-05T05:49:57.288Z,82.51
2019-02-05T05:52:26.948Z,82.79
2019-02-05T05:54:56.689Z,82.81
2019-02-05T05:57:26.743Z,83.38
2019-02-05T05:59:56.225Z,83.44
2019-02-05T06:02:25.615Z,83.64
2019-02-05T06:04:55.001Z,83.65
2019-02-05T06:07:24.646Z,83.41
2019-02-05T06:09:54.117Z,83.30
2019-02-05T06:12:23.542Z,84.08
2019-02-05T06:14:52.936Z,84.03
2019-02-05T06:17:22.477Z,84.12
2019-02-05T06:19:51.861Z,84.09
2019-02-05T06:22:21.462Z,84.42
2019-02-05T06:24:50.994Z,84.73
2019-02-05T06:27:20.505Z,84.97
2019-02-05T06:29:50.269Z,85.04
2019-02-05T06:32:20.161Z,84.75
2019-02-05T06:34:49.704Z,84.60
2019-02-05T06:37:19.099Z,84.33
2019-02-05T06:39:51.641Z,84.17
2019-02-05T06:42:21.496Z,83.77
2019-02-05T06:44:51.150Z,83.63
2019-02-05T06:47:20.548Z,83.75
2019-02-05T06:49:50.029Z,83.97
2019-02-05T06:52:19.537Z,83.85
2019-02-05T06:54:49.029Z,83.11
2019-02-05T06:57:18.479Z,82.11
2019-02-05T06:59:48.260Z,82.14
2019-02-05T07:02:17.755Z,80.79
2019-02-05T07:04:47.257Z,79.79
2019-02-05T07:07:16.647Z,79.27
2019-02-05T07:09:46.049Z,78.73
2019-02-05T07:12:15.555Z,77.44
2019-02-05T07:14:45.097Z,76.36
2019-02-05T07:17:14.496Z,75.13
2019-02-05T07:19:43.894Z,73.92
2019-02-05T07:22:13.489Z,72.71
2019-02-05T07:24:42.986Z,71.42
2019-02-05T07:27:12.375Z,70.69
2019-02-05T07:29:41.774Z,70.49
2019-02-05T07:32:11.652Z,70.35
2019-02-05T07:34:41.144Z,70.51
2019-02-05T07:37:10.573Z,70.19
2019-02-05T07:39:40.064Z,69.34
2019-02-05T07:42:09.475Z,69.00
2019-02-05T07:44:40.067Z,69.25
2019-02-05T07:47:09.743Z,68.68
2019-02-05T07:49:39.526Z,68.68
2019-02-05T07:52:09.115Z,68.25
2019-02-05T07:54:38.507Z,68.09
2019-02-05T07:57:08.162Z,67.03
2019-02-05T07:59:37.899Z,67.93
2019-02-05T08:02:07.614Z,68.38
2019-02-05T08:04:37.008Z,68.66
2019-02-05T08:07:07.685Z,68.24
2019-02-05T08:09:37.688Z,68.38
2019-02-05T08:12:07.291Z,68.76
2019-02-05T08:14:36.674Z,68.66
2019-02-05T08:17:06.208Z,68.56
2019-02-05T08:19:35.633Z,68.60
2019-02-05T08:22:05.321Z,68.52
2019-02-05T08:24:35.120Z,68.18
2019-02-05T08:27:04.790Z,67.70
2019-02-05T08:29:34.540Z,67.65
2019-02-05T08:32:04.352Z,66.69
2019-02-05T08:34:33.859Z,66.69
2019-02-05T08:37:03.377Z,65.40
2019-02-05T08:39:33.103Z,66.11
2019-02-05T08:42:02.607Z,66.54
2019-02-05T08:44:32.206Z,66.69
2019-02-05T08:47:01.613Z,67.07
2019-02-05T08:49:31.012Z,65.86
2019-02-05T08:52:00.508Z,65.71
2019-02-05T08:54:29.988Z,63.82
2019-02-05T08:56:59.806Z,62.73
2019-02-05T08:59:29.250Z,62.11
2019-02-05T09:01:58.643Z,60.02
2019-02-05T09:04:28.048Z,57.77
2019-02-05T09:06:57.534Z,56.60
2019-02-05T09:09:27.037Z,57.13
2019-02-05T09:11:56.514Z,57.28
2019-02-05T09:14:27.547Z,57.06
2019-02-05T09:16:57.058Z,56.14
2019-02-05T09:19:26.668Z,54.28
2019-02-05T09:21:56.061Z,52.14
2019-02-05T09:24:25.461Z,51.91
2019-02-05T09:26:54.958Z,53.65
2019-02-05T09:29:33.214Z,53.56
2019-02-05T09:31:55.686Z,51.92
2019-02-05T09:34:25.090Z,50.42
2019-02-05T09:36:54.583Z,48.55
2019-02-05T09:39:24.103Z,48.29
2019-02-05T09:41:53.727Z,48.24
2019-02-05T09:44:23.600Z,47.62
2019-02-05T09:46:52.990Z,45.72
2019-02-05T09:49:22.391Z,45.44
2019-02-05T09:51:52.020Z,45.33
2019-02-05T09:54:21.497Z,46.73
2019-02-05T09:56:50.936Z,46.27
2019-02-05T09:59:20.333Z,45.07
2019-02-05T10:01:50.007Z,44.35
2019-02-05T10:04:19.583Z,45.69
2019-02-05T10:06:50.064Z,44.33
2019-02-05T10:09:19.880Z,43.48
2019-02-05T10:11:49.370Z,42.08
2019-02-05T10:14:18.869Z,42.54
2019-02-05T10:16:48.685Z,41.54
2019-02-05T10:19:18.190Z,39.73
2019-02-05T10:21:47.590Z,41.01
2019-02-05T10:24:17.061Z,38.93
2019-02-05T10:26:46.594Z,39.21
2019-02-05T10:29:16.088Z,38.66
2019-02-05T10:31:45.482Z,38.31
2019-02-05T10:34:15.052Z,38.03
2019-02-05T10:36:44.602Z,37.44
2019-02-05T10:39:14.353Z,36.47
2019-02-05T10:41:43.726Z,39.85
2019-02-05T10:44:13.115Z,39.53
2019-02-05T10:46:42.603Z,39.69
2019-02-05T10:49:12.441Z,38.69
2019-02-05T10:51:43.281Z,37.09
2019-02-05T10:54:12.666Z,35.88
2019-02-05T10:56:42.161Z,36.46
2019-02-05T10:59:11.651Z,37.47
2019-02-05T11:01:41.254Z,36.24
2019-02-05T11:04:10.742Z,37.21
2019-02-05T11:06:40.206Z,36.30
2019-02-05T11:09:11.290Z,36.39
2019-02-05T11:11:40.790Z,37.04
2019-02-05T11:14:10.275Z,37.37
2019-02-05T11:16:39.701Z,36.04
2019-02-05T11:19:09.210Z,34.60
2019-02-05T11:21:39.074Z,33.44
2019-02-05T11:24:08.692Z,32.36
2019-02-05T11:26:38.101Z,31.07
2019-02-05T11:29:07.508Z,29.18
2019-02-05T11:31:37.000Z,29.54
2019-02-05T11:34:06.762Z,29.54
2019-02-05T11:36:36.151Z,27.60
2019-02-05T11:39:13.780Z,28.06
2019-02-05T11:41:43.285Z,27.80
2019-02-05T11:44:12.677Z,26.89
2019-02-05T11:46:42.167Z,28.45
2019-02-05T11:49:11.668Z,28.80
2019-02-05T11:51:42.147Z,28.57
2019-02-05T11:54:11.542Z,27.29
2019-02-05T11:56:41.053Z,27.10
2019-02-05T11:59:10.527Z,26.15
2019-02-05T12:01:40.623Z,26.98
2019-02-05T12:04:10.012Z,24.98
2019-02-05T12:06:39.530Z,24.85
2019-02-05T12:09:19.186Z,25.94
2019-02-05T12:11:48.644Z,27.85
2019-02-05T12:14:18.046Z,29.74
2019-02-05T12:16:47.603Z,29.26
2019-02-05T12:19:17.107Z,29.69
2019-02-05T12:21:46.706Z,29.27
2019-02-05T12:24:16.125Z,29.28
2019-02-05T12:26:45.721Z,29.89
2019-02-05T12:29:15.230Z,29.98
2019-02-05T12:31:44.620Z,28.63
2019-02-05T12:34:14.181Z,28.73
2019-02-05T12:36:43.677Z,28.03
2019-02-05T12:39:18.209Z,26.51
2019-02-05T12:41:48.010Z,26.88
2019-02-05T12:44:17.504Z,29.22
2019-02-05T12:46:47.006Z,28.09
2019-02-05T12:49:16.507Z,29.25
2019-02-05T12:51:45.964Z,29.63
2019-02-05T12:54:15.749Z,28.53
2019-02-05T12:56:45.243Z,28.56
2019-02-05T12:59:14.648Z,28.82
2019-02-05T13:01:44.128Z,28.16
2019-02-05T13:04:13.680Z,29.44
2019-02-05T13:06:43.067Z,29.52
2019-02-05T13:09:12.647Z,28.82
2019-02-05T13:11:42.142Z,29.32
2019-02-05T13:14:11.627Z,28.96
2019-02-05T13:16:41.036Z,29.03
2019-02-05T13:19:10.431Z,31.92
2019-02-05T13:21:39.935Z,34.81
2019-02-05T13:24:09.515Z,37.29
2019-02-05T13:26:38.921Z,40.45
2019-02-05T13:29:08.321Z,41.42
2019-02-05T13:31:37.871Z,41.21
2019-02-05T13:34:07.875Z,43.42
2019-02-05T13:36:37.275Z,45.25
2019-02-05T13:39:11.968Z,45.71
2019-02-05T13:41:41.358Z,46.35
2019-02-05T13:44:10.771Z,47.58
2019-02-05T13:46:40.266Z,48.69
2019-02-05T13:49:09.863Z,49.05
2019-02-05T13:51:39.641Z,50.30
2019-02-05T13:54:09.076Z,50.60
2019-02-05T13:56:38.762Z,50.78
2019-02-05T13:59:08.252Z,51.61
2019-02-05T14:01:37.999Z,52.62
2019-02-05T14:04:07.527Z,53.75
2019-02-05T14:06:37.295Z,53.37
2019-02-05T14:09:12.736Z,53.90
2019-02-05T14:11:42.472Z,54.34
2019-02-05T14:14:11.876Z,54.81
2019-02-05T14:16:41.714Z,55.25
2019-02-05T14:19:11.099Z,55.82
2019-02-05T14:21:40.861Z,55.99
2019-02-05T14:24:10.742Z,57.27
2019-02-05T14:26:40.255Z,56.87
2019-02-05T14:29:10.343Z,56.91
2019-02-05T14:31:40.011Z,57.67
2019-02-05T14:34:09.732Z,57.72
2019-02-05T14:36:39.253Z,57.87
2019-02-05T14:39:10.513Z,58.65
2019-02-05T14:41:39.998Z,58.93
2019-02-05T14:44:09.785Z,59.16
2019-02-05T14:46:39.398Z,58.89
2019-02-05T14:49:09.276Z,58.88
2019-02-05T14:51:39.011Z,58.96
2019-02-05T14:54:08.610Z,59.31
2019-02-05T14:56:38.269Z,59.62
2019-02-05T14:59:08.155Z,60.37
2019-02-05T15:01:43.169Z,60.57
2019-02-05T15:04:08.703Z,60.95
2019-02-05T15:06:38.459Z,61.21
2019-02-05T15:09:09.177Z,61.01
2019-02-05T15:11:38.809Z,60.55
2019-02-05T15:14:08.676Z,60.47
2019-02-05T15:16:38.447Z,60.19
2019-02-05T15:19:08.216Z,59.25
2019-02-05T15:21:37.897Z,58.11
2019-02-05T15:24:07.307Z,57.19
2019-02-05T15:26:36.955Z,59.01
2019-02-05T15:29:06.655Z,58.89
2019-02-05T15:31:36.637Z,59.09
2019-02-05T15:34:17.984Z,59.47
2019-02-05T15:36:49.552Z,60.02
2019-02-05T15:39:19.117Z,59.61
2019-02-05T15:41:48.957Z,58.31
2019-02-05T15:44:18.453Z,58.41
2019-02-05T15:46:48.120Z,59.02
2019-02-05T15:49:17.505Z,59.24
2019-02-05T15:51:47.088Z,59.72
2019-02-05T15:54:16.592Z,59.62
2019-02-05T15:56:48.500Z,60.08
2019-02-05T15:59:18.097Z,60.37
2019-02-05T16:01:47.717Z,60.74
2019-02-05T16:04:18.262Z,60.75
2019-02-05T16:06:47.702Z,61.21
2019-02-05T16:09:19.400Z,61.63
2019-02-05T16:11:52.212Z,62.08
2019-02-05T16:14:21.829Z,61.89
2019-02-05T16:16:51.269Z,62.05
2019-02-05T16:19:20.955Z,62.26
2019-02-05T16:21:50.590Z,61.79
2019-02-05T16:24:20.001Z,61.55
2019-02-05T16:26:51.205Z,60.21
2019-02-05T16:29:20.706Z,60.19
2019-02-05T16:31:50.357Z,59.79
2019-02-05T16:34:19.908Z,60.46
2019-02-05T16:36:49.683Z,59.25
2019-02-05T16:39:21.984Z,58.83
2019-02-05T16:41:51.780Z,58.16
2019-02-05T16:44:21.181Z,57.73
2019-02-05T16:46:51.074Z,57.28
2019-02-05T16:49:22.503Z,58.12
2019-02-05T16:51:51.935Z,57.83
2019-02-05T16:54:21.643Z,58.64
2019-02-05T16:56:51.506Z,58.29
2019-02-05T16:59:21.568Z,56.88
2019-02-05T17:01:51.551Z,56.20
2019-02-05T17:04:21.101Z,56.00
2019-02-05T17:06:50.527Z,56.07
2019-02-05T17:09:20.503Z,56.63
2019-02-05T17:11:50.266Z,56.63
2019-02-05T17:14:20.070Z,56.47
2019-02-05T17:16:49.525Z,57.01
2019-02-05T17:19:18.928Z,57.11
2019-02-05T17:21:48.425Z,57.10
2019-02-05T17:24:18.510Z,57.12
2019-02-05T17:26:48.255Z,57.67
2019-02-05T17:29:17.639Z,57.90
2019-02-05T17:31:47.526Z,57.94
2019-02-05T17:34:17.384Z,57.50
2019-02-05T17:36:46.805Z,57.76
2019-02-05T17:39:16.479Z,58.50
2019-02-05T17:41:46.225Z,58.38
2019-02-05T17:44:16.035Z,57.89
2019-02-05T17:46:45.617Z,58.31
2019-02-05T17:49:15.328Z,58.17
2019-02-05T17:51:45.302Z,58.78
2019-02-05T17:54:15.295Z,59.20
2019-02-05T17:56:45.149Z,60.05
2019-02-05T17:59:14.972Z,60.31
2019-02-05T18:01:44.620Z,59.69
2019-02-05T18:04:14.404Z,59.76
2019-02-05T18:06:44.926Z,59.29
2019-02-05T18:09:14.703Z,59.29
2019-02-05T18:11:44.462Z,59.01
2019-02-05T18:14:14.595Z,58.98
2019-02-05T18:16:46.776Z,58.72
2019-02-05T18:19:16.565Z,58.39
2019-02-05T18:21:46.852Z,58.17
2019-02-05T18:24:16.753Z,58.80
2019-02-05T18:26:47.945Z,58.69
2019-02-05T18:29:19.817Z,58.48
2019-02-05T18:31:49.403Z,59.10
2019-02-05T18:34:19.274Z,59.71
2019-02-05T18:36:49.136Z,60.36
2019-02-05T18:39:18.833Z,60.39
2019-02-05T18:41:48.664Z,60.73
2019-02-05T18:44:18.234Z,60.60
2019-02-05T18:46:47.979Z,60.67
2019-02-05T18:49:18.005Z,61.29
2019-02-05T18:51:47.764Z,62.08
2019-02-05T18:54:17.476Z,62.73
2019-02-05T18:56:47.022Z,63.38
2019-02-05T18:59:16.566Z,63.72
2019-02-05T19:01:46.375Z,63.57
2019-02-05T19:04:16.543Z,63.66
2019-02-05T19:06:46.178Z,63.62
2019-02-05T19:09:16.080Z,63.40
2019-02-05T19:11:46.046Z,63.37
2019-02-05T19:14:16.035Z,63.04
2019-02-05T19:16:45.779Z,61.92
2019-02-05T19:19:15.950Z,61.06
2019-02-05T19:21:45.917Z,59.30
2019-02-05T19:24:32.918Z,58.27
2019-02-05T19:27:02.342Z,57.57
2019-02-05T19:29:32.854Z,57.65
2019-02-05T19:32:02.684Z,57.86
2019-02-05T19:34:32.323Z,57.84
2019-02-05T19:37:02.411Z,57.63
2019-02-05T19:39:32.219Z,57.05
2019-02-05T19:42:01.826Z,55.85
2019-02-05T19:44:31.508Z,53.43
2019-02-05T19:47:04.247Z,52.58
2019-02-05T19:49:36.982Z,52.55
2019-02-05T19:52:06.667Z,51.17
2019-02-05T19:54:36.435Z,50.54
2019-02-05T19:57:06.268Z,50.12
2019-02-05T19:59:36.663Z,49.97
2019-02-05T20:02:06.862Z,50.54
2019-02-05T20:04:38.906Z,49.81
2019-02-05T20:07:08.556Z,50.65
2019-02-05T20:09:38.298Z,50.79
2019-02-05T20:12:09.393Z,50.39
2019-02-05T20:14:39.091Z,50.36
2019-02-05T20:17:09.096Z,50.38
2019-02-05T20:19:38.701Z,50.12
2019-02-05T20:22:08.185Z,50.63
2019-02-05T20:24:37.710Z,50.23
2019-02-05T20:27:07.938Z,50.65
2019-02-05T20:29:37.537Z,51.07
2019-02-05T20:32:07.626Z,51.47
2019-02-05T20:34:37.746Z,51.49
2019-02-05T20:37:07.497Z,52.03
2019-02-05T20:39:37.242Z,52.32
2019-02-05T20:42:06.913Z,52.13
2019-02-05T20:44:36.634Z,52.55
2019-02-05T20:47:06.745Z,52.35
2019-02-05T20:49:36.127Z,52.73
2019-02-05T20:52:05.992Z,52.53
2019-02-05T20:54:35.604Z,53.15
2019-02-05T20:57:05.270Z,52.65
2019-02-05T20:59:34.913Z,51.97
2019-02-05T21:02:04.736Z,52.39
2019-02-05T21:04:35.524Z,51.84
2019-02-05T21:07:05.643Z,52.17
2019-02-05T21:09:35.134Z,51.77
2019-02-05T21:12:04.852Z,51.93
2019-02-05T21:14:34.465Z,51.75
2019-02-05T21:17:04.299Z,52.85
2019-02-05T21:19:34.133Z,52.83
2019-02-05T21:22:03.791Z,53.28
2019-02-05T21:24:33.226Z,53.66
2019-02-05T21:27:02.836Z,53.66
2019-02-05T21:29:32.572Z,53.83
2019-02-05T21:32:01.961Z,53.26
2019-02-05T21:34:31.900Z,52.80
2019-02-05T21:37:01.560Z,53.68
2019-02-05T21:39:31.138Z,54.05
2019-02-05T21:42:00.987Z,53.78
2019-02-05T21:44:30.725Z,53.77
2019-02-05T21:47:00.313Z,53.00
2019-02-05T21:49:30.079Z,52.57
2019-02-05T21:51:59.807Z,52.92
2019-02-05T21:54:29.287Z,52.22
2019-02-05T21:56:58.897Z,52.58
2019-02-05T21:59:28.295Z,52.67
2019-02-05T22:01:57.796Z,53.46
2019-02-05T22:04:28.214Z,53.68
2019-02-05T22:06:58.151Z,52.37
2019-02-05T22:09:27.631Z,51.94
2019-02-05T22:11:57.308Z,53.25
2019-02-05T22:14:26.804Z,53.61
2019-02-05T22:16:56.203Z,54.41
2019-02-05T22:19:27.048Z,57.16
2019-02-05T22:21:56.716Z,58.59
2019-02-05T22:24:26.407Z,59.42
2019-02-05T22:26:56.244Z,59.89
2019-02-05T22:29:25.745Z,60.11
2019-02-05T22:31:56.927Z,60.90
2019-02-05T22:34:38.600Z,61.32
2019-02-05T22:36:57.891Z,61.28
2019-02-05T22:39:27.754Z,61.97
2019-02-05T22:41:57.444Z,62.14
2019-02-05T22:44:26.850Z,62.58
2019-02-05T22:46:56.987Z,63.27
2019-02-05T22:49:26.770Z,63.54
2019-02-05T22:51:56.714Z,63.72
2019-02-05T22:54:26.417Z,63.63
2019-02-05T22:56:55.907Z,64.13
2019-02-05T22:59:25.938Z,65.33
2019-02-05T23:01:57.979Z,65.78
2019-02-05T23:05:14.071Z,66.23
2019-02-05T23:07:43.996Z,66.37
2019-02-05T23:10:34.823Z,66.44
2019-02-05T23:13:07.791Z,66.58
2019-02-05T23:15:39.322Z,66.54
2019-02-05T23:18:09.294Z,66.83
2019-02-05T23:20:39.001Z,67.12
2019-02-05T23:23:08.385Z,67.48
2019-02-05T23:25:38.069Z,67.81
2019-02-05T23:28:07.769Z,67.97
2019-02-05T23:30:37.508Z,67.62
2019-02-05T23:33:07.162Z,67.21
2019-02-05T23:35:36.789Z,67.30
2019-02-05T23:38:06.742Z,67.62
2019-02-05T23:40:36.336Z,68.36
2019-02-05T23:43:06.409Z,68.61
2019-02-05T23:45:36.317Z,68.76
2019-02-05T23:48:06.377Z,68.51
2019-02-05T23:50:36.081Z,68.13
2019-02-05T23:53:06.586Z,68.12
2019-02-05T23:55:36.425Z,68.04
2019-02-05T23:58:06.583Z,68.30
